createdAt,value
2023-01-04T00:01:51.627Z,117.43
2023-01-04T00:04:37.211Z,105.32
2023-01-04T00:07:22.705Z,111.18
2023-01-04T00:10:08.397Z,114.40
2023-01-04T00:12:53.835Z,113.40
2023-01-04T00:15:39.593Z,111.43
2023-01-04T00:18:25.864Z,111.68
2023-01-04T00:21:18.510Z,103.30
2023-01-04T00:24:04.039Z,104.78
2023-01-04T00:26:49.403Z,109.22
2023-01-04T00:29:35.222Z,91.35
2023-01-04T00:32:20.906Z,98.88
2023-01-04T00:35:06.838Z,101.82
2023-01-04T00:37:52.720Z,103.95
2023-01-04T00:40:38.104Z,94.53
2023-01-04T00:43:23.671Z,94.10
2023-01-04T00:46:11.648Z,92.85
2023-01-04T00:49:00.519Z,95.60
2023-01-04T00:51:47.051Z,96.85
2023-01-04T00:54:32.566Z,94.30
2023-01-04T00:57:18.187Z,98.45
2023-01-04T01:00:04.236Z,97.43
2023-01-04T01:02:49.812Z,88.75
2023-01-04T01:05:36.702Z,96.15
2023-01-04T01:08:24.908Z,95.30
2023-01-04T01:11:11.314Z,98.97
2023-01-04T01:13:58.014Z,83.40
2023-01-04T01:16:59.103Z,87.03
2023-01-04T01:19:44.774Z,80.72
2023-01-04T01:22:31.372Z,83.00
2023-01-04T01:25:17.280Z,79.43
2023-01-04T01:28:02.677Z,80.43
2023-01-04T01:30:48.317Z,83.47
2023-01-04T01:33:35.898Z,79.20
2023-01-04T01:36:23.367Z,78.82
2023-01-04T01:39:08.755Z,77.20
2023-01-04T01:41:54.650Z,79.40
2023-01-04T01:44:44.081Z,72.72
2023-01-04T01:47:41.238Z,70.00
2023-01-04T01:50:32.684Z,76.32
2023-01-04T01:53:18.403Z,68.00
2023-01-04T01:56:06.476Z,74.93
2023-01-04T01:58:55.610Z,77.68
2023-01-04T02:01:41.821Z,78.85
2023-01-04T02:04:27.744Z,80.78
2023-01-04T02:07:18.342Z,85.50
2023-01-04T02:10:04.504Z,89.95
2023-01-04T02:12:52.255Z,79.78
2023-01-04T02:16:07.505Z,84.65
2023-01-04T02:19:35.128Z,82.60
2023-01-04T02:22:57.881Z,86.53
2023-01-04T02:26:20.628Z,96.72
2023-01-04T02:29:42.086Z,90.72
2023-01-04T02:32:33.579Z,89.82
2023-01-04T02:35:32.489Z,101.10
2023-01-04T02:38:36.312Z,110.28
2023-01-04T02:44:49.019Z,113.68
2023-01-04T02:47:55.699Z,104.43
2023-01-04T02:50:51.223Z,92.72
2023-01-04T02:53:40.068Z,95.50
2023-01-04T02:57:10.067Z,99.75
2023-01-04T03:01:04.380Z,104.63
2023-01-04T03:04:22.603Z,104.13
2023-01-04T03:07:36.089Z,109.25
2023-01-04T03:10:46.866Z,112.28
2023-01-04T03:13:39.267Z,106.13
2023-01-04T03:16:26.692Z,107.47
2023-01-04T03:19:14.148Z,108.47
2023-01-04T03:21:59.843Z,96.05
2023-01-04T03:25:04.243Z,102.55
2023-01-04T03:28:10.691Z,87.72
2023-01-04T03:31:51.085Z,102.72
2023-01-04T03:34:55.763Z,97.97
2023-01-04T03:38:23.912Z,92.80
2023-01-04T03:41:50.547Z,93.32
2023-01-04T03:45:23.010Z,84.72
2023-01-04T03:48:26.955Z,89.05
2023-01-04T03:51:22.828Z,89.40
2023-01-04T03:54:19.240Z,85.13
2023-01-04T03:57:06.869Z,87.70
2023-01-04T03:59:57.915Z,82.82
2023-01-04T04:02:46.291Z,89.13
2023-01-04T04:05:50.569Z,86.38
2023-01-04T04:08:36.083Z,80.60
2023-01-04T04:11:30.575Z,80.40
2023-01-04T04:14:17.318Z,87.15
2023-01-04T04:17:03.018Z,74.95
2023-01-04T04:19:48.932Z,76.10
2023-01-04T04:22:34.411Z,81.60
2023-01-04T04:25:20.030Z,79.50
2023-01-04T04:28:06.242Z,86.25
2023-01-04T04:30:52.468Z,76.55
2023-01-04T04:33:38.603Z,70.97
2023-01-04T04:36:24.436Z,72.93
2023-01-04T04:39:11.310Z,71.53
2023-01-04T04:41:56.743Z,73.25
2023-01-04T04:44:42.448Z,71.22
2023-01-04T04:47:28.117Z,73.35
2023-01-04T04:50:13.891Z,65.18
2023-01-04T04:52:59.630Z,63.70
2023-01-04T04:55:45.303Z,61.35
2023-01-04T04:58:31.116Z,54.30
2023-01-04T05:01:16.675Z,62.65
2023-01-04T05:04:02.511Z,57.30
2023-01-04T05:06:49.925Z,59.40
2023-01-04T05:09:35.398Z,55.97
2023-01-04T05:12:39.679Z,50.25
2023-01-04T05:15:31.810Z,50.53
2023-01-04T05:18:19.640Z,54.50
2023-01-04T05:21:04.948Z,49.10
2023-01-04T05:23:50.827Z,52.00
2023-01-04T05:26:36.562Z,49.42
2023-01-04T05:29:40.706Z,52.35
2023-01-04T05:32:26.543Z,48.70
2023-01-04T05:35:12.038Z,49.33
2023-01-04T05:37:58.323Z,48.70
2023-01-04T05:40:44.505Z,50.95
2023-01-04T05:43:29.828Z,50.17
2023-01-04T05:46:15.703Z,47.72
2023-01-04T05:49:01.376Z,45.88
2023-01-04T05:51:46.692Z,45.17
2023-01-04T05:54:32.396Z,46.10
2023-01-04T05:57:18.479Z,44.35
2023-01-04T06:00:06.174Z,47.00
2023-01-04T06:05:43.692Z,43.72
2023-01-04T06:08:29.341Z,44.72
2023-01-04T06:11:15.146Z,40.22
2023-01-04T06:14:00.583Z,39.05
2023-01-04T06:16:46.499Z,37.92
2023-01-04T06:19:32.975Z,38.47
2023-01-04T06:22:19.857Z,41.83
2023-01-04T06:25:07.551Z,39.80
2023-01-04T06:27:53.279Z,42.28
2023-01-04T06:30:39.007Z,41.22
2023-01-04T06:33:24.770Z,43.75
2023-01-04T06:36:20.245Z,46.22
2023-01-04T06:39:07.850Z,47.70
2023-01-04T06:41:53.620Z,44.63
2023-01-04T06:44:38.879Z,39.55
2023-01-04T06:47:24.672Z,42.90
2023-01-04T06:50:11.186Z,40.22
2023-01-04T06:52:56.580Z,41.85
2023-01-04T06:55:44.586Z,37.60
2023-01-04T06:58:30.156Z,37.88
2023-01-04T07:01:16.273Z,37.72
2023-01-04T07:04:02.336Z,41.42
2023-01-04T07:06:54.741Z,38.00
2023-01-04T07:09:40.346Z,37.70
2023-01-04T07:12:25.815Z,39.97
2023-01-04T07:15:38.926Z,41.13
2023-01-04T07:18:17.483Z,42.13
2023-01-04T07:21:02.817Z,43.47
2023-01-04T07:23:48.392Z,36.05
2023-01-04T07:26:35.256Z,39.00
2023-01-04T07:29:22.433Z,41.55
2023-01-04T07:32:13.692Z,39.47
2023-01-04T07:34:59.528Z,51.85
2023-01-04T07:37:45.571Z,42.58
2023-01-04T07:40:31.243Z,41.97
2023-01-04T07:43:27.518Z,45.70
2023-01-04T07:46:13.945Z,45.78
2023-01-04T07:49:00.307Z,43.55
2023-01-04T07:51:47.921Z,46.25
2023-01-04T07:54:33.270Z,48.30
2023-01-04T07:57:19.219Z,47.95
2023-01-04T08:00:05.366Z,43.40
2023-01-04T08:02:57.322Z,43.58
2023-01-04T08:05:42.943Z,44.97
2023-01-04T08:08:28.575Z,41.53
2023-01-04T08:11:18.042Z,43.55
2023-01-04T08:14:04.147Z,42.35
2023-01-04T08:16:49.662Z,41.67
2023-01-04T08:19:35.130Z,40.92
2023-01-04T08:22:21.183Z,39.15
2023-01-04T08:25:07.312Z,49.42
2023-01-04T08:27:53.079Z,45.35
2023-01-04T08:30:39.016Z,40.97
2023-01-04T08:33:25.253Z,45.35
2023-01-04T08:36:27.127Z,41.13
2023-01-04T08:39:13.238Z,41.58
2023-01-04T08:42:06.721Z,51.47
2023-01-04T08:45:01.808Z,47.90
2023-01-04T08:47:47.536Z,51.20
2023-01-04T08:50:34.346Z,48.08
2023-01-04T08:53:22.175Z,51.72
2023-01-04T08:56:09.135Z,51.50
2023-01-04T08:58:54.848Z,56.03
2023-01-04T09:01:41.282Z,56.65
2023-01-04T09:04:26.729Z,60.20
2023-01-04T09:07:12.286Z,59.50
2023-01-04T09:09:58.009Z,62.70
2023-01-04T09:12:43.552Z,65.85
2023-01-04T09:15:28.979Z,62.58
2023-01-04T09:18:30.972Z,62.47
2023-01-04T09:21:20.917Z,64.85
2023-01-04T09:24:06.701Z,66.35
2023-01-04T09:26:52.295Z,63.75
2023-01-04T09:29:37.831Z,70.70
2023-01-04T09:32:23.801Z,67.65
2023-01-04T09:35:09.646Z,67.93
2023-01-04T09:37:56.020Z,71.03
2023-01-04T09:41:05.570Z,61.95
2023-01-04T09:44:21.662Z,58.45
2023-01-04T09:47:15.865Z,58.95
2023-01-04T09:50:10.073Z,60.63
2023-01-04T09:52:58.864Z,60.95
2023-01-04T09:55:50.699Z,60.60
2023-01-04T09:58:39.652Z,55.35
2023-01-04T10:01:48.665Z,61.95
2023-01-04T10:04:48.352Z,66.70
2023-01-04T10:07:34.844Z,58.55
2023-01-04T10:10:43.574Z,59.90
2023-01-04T10:13:32.185Z,62.47
2023-01-04T10:16:44.074Z,63.00
2023-01-04T10:23:13.075Z,53.33
2023-01-04T10:26:16.367Z,50.28
2023-01-04T10:29:46.719Z,52.43
2023-01-04T10:32:41.151Z,50.17
2023-01-04T10:35:28.052Z,49.00
2023-01-04T10:38:18.571Z,52.88
2023-01-04T10:41:11.908Z,55.42
2023-01-04T10:44:19.392Z,57.05
2023-01-04T10:47:14.235Z,55.75
2023-01-04T10:50:11.363Z,56.97
2023-01-04T10:53:17.929Z,64.47
2023-01-04T10:56:23.634Z,59.45
2023-01-04T10:59:17.882Z,74.63
2023-01-04T11:02:26.149Z,79.27
2023-01-04T11:05:15.965Z,90.50
2023-01-04T11:08:14.797Z,89.20
2023-01-04T11:11:12.281Z,108.22
2023-01-04T11:13:58.049Z,97.35
2023-01-04T11:16:46.961Z,95.32
2023-01-04T11:19:33.922Z,102.55
2023-01-04T11:22:36.261Z,101.25
2023-01-04T11:25:38.765Z,94.88
2023-01-04T11:28:43.279Z,108.35
2023-01-04T11:31:34.948Z,106.78
2023-01-04T11:34:20.413Z,105.85
2023-01-04T11:37:24.533Z,98.18
2023-01-04T11:40:12.012Z,91.53
2023-01-04T11:43:18.620Z,94.97
2023-01-04T11:46:22.570Z,92.03
2023-01-04T11:49:20.166Z,102.20
2023-01-04T11:52:05.693Z,106.90
2023-01-04T11:54:51.455Z,96.30
2023-01-04T11:57:37.118Z,88.00
2023-01-04T12:00:22.952Z,92.10
2023-01-04T12:03:17.800Z,89.03
2023-01-04T12:06:11.797Z,79.65
2023-01-04T12:08:57.720Z,82.68
2023-01-04T12:11:51.091Z,82.35
2023-01-04T12:14:38.138Z,74.43
2023-01-04T12:17:38.098Z,81.47
2023-01-04T12:20:28.705Z,73.07
2023-01-04T12:23:14.846Z,85.53
2023-01-04T12:26:01.694Z,77.63
2023-01-04T12:28:50.436Z,76.30
2023-01-04T12:31:35.987Z,85.28
2023-01-04T12:34:26.034Z,75.35
2023-01-04T12:37:48.666Z,80.68
2023-01-04T12:40:46.783Z,76.70
2023-01-04T12:43:43.060Z,72.82
2023-01-04T12:46:50.641Z,77.47
2023-01-04T12:49:42.365Z,64.90
2023-01-04T12:52:38.379Z,68.10
2023-01-04T12:55:40.578Z,63.47
2023-01-04T12:59:29.453Z,74.97
2023-01-04T13:02:22.538Z,77.18
2023-01-04T13:08:25.434Z,73.40
2023-01-04T13:11:53.772Z,73.95
2023-01-04T13:15:01.034Z,96.43
2023-01-04T13:18:22.918Z,79.93
2023-01-04T13:21:28.327Z,82.05
2023-01-04T13:24:30.717Z,88.22
2023-01-04T13:27:22.175Z,84.45
2023-01-04T13:30:29.124Z,80.43
2023-01-04T13:33:28.964Z,84.75
2023-01-04T13:36:15.017Z,79.38
2023-01-04T13:39:00.928Z,90.18
2023-01-04T13:41:46.914Z,89.32
2023-01-04T13:45:09.191Z,90.10
2023-01-04T13:47:44.975Z,90.07
2023-01-04T13:50:35.733Z,83.32
2023-01-04T13:53:24.903Z,79.07
2023-01-04T13:56:24.369Z,85.32
2023-01-04T13:59:11.111Z,84.40
2023-01-04T14:01:57.156Z,80.43
2023-01-04T14:04:43.664Z,80.38
2023-01-04T14:07:29.468Z,80.90
2023-01-04T14:10:19.383Z,76.32
2023-01-04T14:13:05.608Z,80.43
2023-01-04T14:16:06.360Z,70.57
2023-01-04T14:18:51.974Z,69.65
2023-01-04T14:21:37.961Z,70.32
2023-01-04T14:27:42.882Z,61.83
2023-01-04T14:30:28.643Z,66.38
2023-01-04T14:33:20.583Z,67.38
2023-01-04T14:36:09.638Z,65.32
2023-01-04T14:39:00.244Z,77.80
2023-01-04T14:41:48.731Z,67.75
2023-01-04T14:44:36.218Z,65.03
2023-01-04T14:47:22.039Z,64.38
2023-01-04T14:50:08.946Z,59.67
2023-01-04T14:52:54.818Z,66.53
2023-01-04T14:55:40.461Z,60.30
2023-01-04T14:58:26.013Z,64.68
2023-01-04T15:01:12.693Z,66.28
2023-01-04T15:03:58.753Z,68.50
2023-01-04T15:06:54.514Z,71.47
2023-01-04T15:09:40.641Z,68.05
2023-01-04T15:12:26.558Z,62.53
2023-01-04T15:15:12.466Z,59.25
2023-01-04T15:17:57.983Z,57.53
2023-01-04T15:20:49.069Z,55.33
2023-01-04T15:23:41.194Z,70.55
2023-01-04T15:26:30.452Z,64.40
2023-01-04T15:29:18.162Z,57.75
2023-01-04T15:32:03.810Z,59.45
2023-01-04T15:34:51.766Z,61.38
2023-01-04T15:37:37.411Z,65.78
2023-01-04T15:40:23.503Z,58.22
2023-01-04T15:43:10.349Z,65.75
2023-01-04T15:45:56.015Z,63.35
2023-01-04T15:48:41.543Z,65.90
2023-01-04T15:51:27.297Z,71.03
2023-01-04T15:54:13.279Z,69.65
2023-01-04T15:56:58.778Z,63.60
2023-01-04T15:59:47.718Z,73.72
2023-01-04T16:02:33.384Z,64.43
2023-01-04T16:05:21.114Z,65.32
2023-01-04T16:08:06.537Z,69.43
2023-01-04T16:10:53.016Z,75.88
2023-01-04T16:13:38.936Z,71.82
2023-01-04T16:16:30.275Z,71.55
2023-01-04T16:19:15.750Z,71.30
2023-01-04T16:22:01.568Z,73.10
2023-01-04T16:27:52.894Z,74.95
2023-01-04T16:30:38.724Z,68.18
2023-01-04T16:33:24.557Z,75.30
2023-01-04T16:36:11.654Z,67.70
2023-01-04T16:38:57.378Z,65.78
2023-01-04T16:41:43.292Z,76.85
2023-01-04T16:44:29.090Z,72.95
2023-01-04T16:47:14.977Z,74.20
2023-01-04T16:50:01.710Z,70.22
2023-01-04T16:52:47.307Z,79.10
2023-01-04T16:55:33.641Z,73.15
2023-01-04T16:58:19.331Z,73.63
2023-01-04T17:01:08.579Z,78.35
2023-01-04T17:03:56.358Z,74.93
2023-01-04T17:06:45.723Z,77.20
2023-01-04T17:09:31.023Z,83.53
2023-01-04T17:12:46.436Z,79.70
2023-01-04T17:15:42.480Z,72.93
2023-01-04T17:18:28.847Z,75.82
2023-01-04T17:21:33.068Z,79.65
2023-01-04T17:24:19.458Z,77.13
2023-01-04T17:27:04.957Z,73.03
2023-01-04T17:29:50.531Z,86.13
2023-01-04T17:32:36.212Z,77.50
2023-01-04T17:35:21.897Z,72.93
2023-01-04T17:38:07.925Z,81.18
2023-01-04T17:40:53.634Z,72.18
2023-01-04T17:43:40.141Z,76.97
2023-01-04T17:46:27.228Z,76.80
2023-01-04T17:49:32.176Z,73.40
2023-01-04T17:52:25.934Z,85.38
2023-01-04T17:55:17.151Z,70.78
2023-01-04T17:58:06.175Z,74.10
2023-01-04T18:00:55.455Z,65.60
2023-01-04T18:03:46.617Z,78.38
2023-01-04T18:06:34.655Z,73.68
2023-01-04T18:09:24.197Z,72.28
2023-01-04T18:12:10.057Z,75.05
2023-01-04T18:14:56.889Z,77.50
2023-01-04T18:17:42.615Z,77.32
2023-01-04T18:20:28.643Z,82.97
2023-01-04T18:23:24.249Z,78.32
2023-01-04T18:26:12.119Z,75.60
2023-01-04T18:28:58.653Z,88.63
2023-01-04T18:31:44.163Z,77.38
2023-01-04T18:34:29.912Z,86.53
2023-01-04T18:37:16.630Z,85.22
2023-01-04T18:40:03.727Z,81.18
2023-01-04T18:42:49.515Z,84.15
2023-01-04T18:45:34.929Z,86.85
2023-01-04T18:48:20.600Z,89.00
2023-01-04T18:51:09.313Z,83.13
2023-01-04T18:53:57.226Z,83.75
2023-01-04T18:56:42.818Z,82.88
2023-01-04T18:59:29.905Z,87.45
2023-01-04T19:02:20.253Z,92.20
2023-01-04T19:05:07.652Z,94.18
2023-01-04T19:07:54.977Z,82.07
2023-01-04T19:10:40.535Z,86.40
2023-01-04T19:13:27.238Z,83.47
2023-01-04T19:16:14.340Z,83.78
2023-01-04T19:19:00.455Z,87.65
2023-01-04T19:21:46.380Z,86.32
2023-01-04T19:24:32.224Z,75.13
2023-01-04T19:27:17.754Z,80.00
2023-01-04T19:30:04.137Z,75.68
2023-01-04T19:32:49.661Z,77.60
2023-01-04T19:35:39.186Z,74.93
2023-01-04T19:38:25.035Z,73.85
2023-01-04T19:41:19.757Z,75.90
2023-01-04T19:44:07.672Z,82.30
2023-01-04T19:46:53.591Z,89.05
2023-01-04T19:49:39.019Z,72.85
2023-01-04T19:52:24.737Z,81.00
2023-01-04T19:55:11.271Z,77.90
2023-01-04T19:57:57.050Z,68.93
2023-01-04T20:00:54.068Z,72.20
2023-01-04T20:03:42.042Z,74.00
2023-01-04T20:06:27.968Z,68.65
2023-01-04T20:09:13.746Z,77.43
2023-01-04T20:12:00.327Z,79.55
2023-01-04T20:14:46.962Z,74.57
2023-01-04T20:17:32.991Z,74.95
2023-01-04T20:20:19.295Z,79.35
2023-01-04T20:23:05.876Z,84.40
2023-01-04T20:25:53.659Z,77.22
2023-01-04T20:28:41.863Z,73.38
2023-01-04T20:31:27.595Z,74.28
2023-01-04T20:34:13.396Z,74.03
2023-01-04T20:36:59.209Z,81.55
2023-01-04T20:39:45.302Z,70.43
2023-01-04T20:42:50.144Z,61.17
2023-01-04T20:45:40.444Z,65.53
2023-01-04T20:48:26.278Z,60.40
2023-01-04T20:51:22.033Z,63.80
2023-01-04T20:54:07.689Z,72.03
2023-01-04T20:56:53.604Z,96.80
2023-01-04T20:59:41.653Z,79.13
2023-01-04T21:02:27.592Z,70.82
2023-01-04T21:05:13.363Z,70.57
2023-01-04T21:07:58.796Z,72.13
2023-01-04T21:10:44.689Z,70.88
2023-01-04T21:13:30.201Z,78.70
2023-01-04T21:16:16.060Z,67.38
2023-01-04T21:19:02.059Z,71.18
2023-01-04T21:21:47.811Z,65.97
2023-01-04T21:24:34.315Z,70.90
2023-01-04T21:27:20.336Z,69.53
2023-01-04T21:30:06.445Z,66.15
2023-01-04T21:32:55.073Z,76.40
2023-01-04T21:35:44.893Z,68.68
2023-01-04T21:38:30.577Z,71.63
2023-01-04T21:41:16.957Z,67.00
2023-01-04T21:44:02.585Z,73.20
2023-01-04T21:46:48.350Z,72.43
2023-01-04T21:49:34.387Z,63.75
2023-01-04T21:52:22.221Z,68.55
2023-01-04T21:55:08.143Z,72.07
2023-01-04T21:57:54.032Z,72.93
2023-01-04T22:00:39.625Z,69.90
2023-01-04T22:03:25.679Z,77.63
2023-01-04T22:06:14.000Z,72.60
2023-01-04T22:08:59.816Z,68.90
2023-01-04T22:11:45.911Z,72.07
2023-01-04T22:14:32.611Z,73.65
2023-01-04T22:17:18.063Z,65.22
2023-01-04T22:20:04.205Z,72.13
2023-01-04T22:22:49.692Z,69.47
2023-01-04T22:25:36.384Z,71.60
2023-01-04T22:28:22.141Z,71.78
2023-01-04T22:31:10.128Z,67.20
2023-01-04T22:33:55.796Z,55.72
2023-01-04T22:36:41.838Z,57.40
2023-01-04T22:39:27.495Z,59.00
2023-01-04T22:42:13.979Z,58.20
2023-01-04T22:44:59.859Z,54.78
2023-01-04T22:47:45.849Z,62.25
2023-01-04T22:50:31.949Z,55.67
2023-01-04T22:53:17.907Z,65.72
2023-01-04T22:56:23.641Z,59.67
2023-01-04T22:59:09.651Z,59.35
2023-01-04T23:01:55.456Z,53.90
2023-01-04T23:04:41.148Z,60.20
2023-01-04T23:07:26.877Z,53.85
2023-01-04T23:10:12.769Z,59.22
2023-01-04T23:12:58.433Z,51.45
2023-01-04T23:15:44.369Z,53.55
2023-01-04T23:18:29.677Z,52.97
2023-01-04T23:21:16.256Z,54.63
2023-01-04T23:24:02.619Z,55.65
2023-01-04T23:26:48.243Z,53.35
2023-01-04T23:29:33.809Z,54.45
2023-01-04T23:32:19.567Z,50.83
2023-01-04T23:35:05.428Z,52.17
2023-01-04T23:37:50.795Z,55.75
2023-01-04T23:40:36.631Z,53.05
2023-01-04T23:43:22.790Z,48.00
2023-01-04T23:48:55.746Z,49.00
2023-01-04T23:51:42.762Z,63.97
2023-01-04T23:54:29.143Z,53.80
2023-01-04T23:57:14.599Z,58.10
